Time;durP1;ratioP1;P1;durP2;ratioP2;P2;SDS_P1;SDS_P2;PMS_P1;PMS_P2;Temp;Humidity;BMP_temperature;BMP_pressure;BME280_temperature;BME280_humidity;BME280_pressure;Samples;Min_cycle;Max_cycle;Signal;HPM_P1;HPM_P2
2023/02/03 00:00:11;;;;;;;;;;;17.20;63.30;;;;;;5022932;28;1330;-71
2023/02/03 00:02:37;;;;;;;;;;;17.20;63.30;;;;;;5023129;28;912;-72
2023/02/03 00:05:03;;;;;;;;;;;17.20;63.30;;;;;;5021130;28;969;-71
2023/02/03 00:07:28;;;;;;;;;;;17.20;63.30;;;;;;5020012;28;1957;-71
2023/02/03 00:09:54;;;;;;;;;;;17.20;63.30;;;;;;5019748;28;1334;-71
2023/02/03 00:12:20;;;;;;;;;;;17.20;63.40;;;;;;5010079;28;1377;-71
2023/02/03 00:14:45;;;;;;;;;;;17.20;63.30;;;;;;5017630;28;963;-71
2023/02/03 00:17:11;;;;;;;;;;;17.20;63.30;;;;;;5020456;28;1058;-71
2023/02/03 00:19:36;;;;;;;;;;;17.20;63.30;;;;;;5020163;28;1366;-71
2023/02/03 00:22:01;;;;;;;;;;;17.10;63.30;;;;;;5021580;28;994;-71
2023/02/03 00:24:27;;;;;;;;;;;17.20;63.30;;;;;;5016639;28;804;-71
2023/02/03 00:26:53;;;;;;;;;;;17.20;63.40;;;;;;5019560;28;1928;-71
2023/02/03 00:29:20;;;;;;;;;;;17.20;63.30;;;;;;5021997;28;1318;-71
2023/02/03 00:31:45;;;;;;;;;;;17.20;63.40;;;;;;5019796;28;855;-71
2023/02/03 00:34:11;;;;;;;;;;;17.20;63.40;;;;;;5017444;28;881;-71
2023/02/03 00:36:36;;;;;;;;;;;17.20;63.40;;;;;;5017961;28;886;-71
2023/02/03 00:39:02;;;;;;;;;;;17.20;63.40;;;;;;5019274;28;1260;-71
2023/02/03 00:41:28;;;;;;;;;;;17.10;63.40;;;;;;5035545;28;1183;-71
2023/02/03 00:43:53;;;;;;;;;;;17.10;63.30;;;;;;5014872;28;1006;-71
2023/02/03 00:46:19;;;;;;;;;;;17.10;63.30;;;;;;5020321;28;1007;-71
2023/02/03 00:48:44;;;;;;;;;;;17.10;63.30;;;;;;5020631;28;1902;-71
2023/02/03 00:51:10;;;;;;;;;;;17.10;63.30;;;;;;5014622;28;899;-71
2023/02/03 00:53:35;;;;;;;;;;;17.20;63.40;;;;;;5015880;28;952;-71
2023/02/03 00:56:01;;;;;;;;;;;17.10;63.30;;;;;;5019985;28;916;-71
2023/02/03 00:58:26;;;;;;;;;;;17.10;63.40;;;;;;5016762;28;1289;-71
2023/02/03 01:00:53;;;;;;;;;;;17.20;63.40;;;;;;5032384;28;879;-71
2023/02/03 01:03:18;;;;;;;;;;;17.10;63.40;;;;;;5015491;28;1505;-71
2023/02/03 01:05:44;;;;;;;;;;;17.10;63.40;;;;;;5017617;28;812;-71
2023/02/03 01:08:09;;;;;;;;;;;17.20;63.50;;;;;;5034209;28;1894;-71
2023/02/03 01:10:36;;;;;;;;;;;17.20;63.50;;;;;;5021889;28;1330;-71
2023/02/03 01:13:01;;;;;;;;;;;17.20;63.50;;;;;;5018387;28;943;-70
2023/02/03 01:15:27;;;;;;;;;;;17.20;63.50;;;;;;5016666;28;1054;-72
2023/02/03 01:17:52;;;;;;;;;;;17.10;63.40;;;;;;5016816;28;1379;-71
2023/02/03 01:20:20;;;;;;;;;;;17.20;63.50;;;;;;5018029;28;1294;-71
2023/02/03 01:22:45;;;;;;;;;;;17.10;63.40;;;;;;5020715;28;937;-71
2023/02/03 01:25:11;;;;;;;;;;;17.20;63.50;;;;;;5024653;28;1054;-72
2023/02/03 01:27:36;;;;;;;;;;;17.20;63.50;;;;;;5027777;28;2310;-71
2023/02/03 01:30:02;;;;;;;;;;;17.10;63.40;;;;;;5021146;28;1287;-70
2023/02/03 01:32:27;;;;;;;;;;;17.10;63.40;;;;;;5037281;28;1077;-71
2023/02/03 01:34:53;;;;;;;;;;;17.10;63.50;;;;;;5021060;28;1269;-71
2023/02/03 01:37:18;;;;;;;;;;;17.10;63.40;;;;;;5023117;28;883;-72
2023/02/03 01:39:44;;;;;;;;;;;17.10;63.40;;;;;;5038739;28;1285;-70
2023/02/03 01:42:13;;;;;;;;;;;17.10;63.40;;;;;;5027668;28;1244;-70
2023/02/03 01:44:46;;;;;;;;;;;17.10;63.40;;;;;;5027671;28;1348;-72
2023/02/03 01:47:18;;;;;;;;;;;17.10;63.50;;;;;;5035527;28;1965;-70
2023/02/03 01:49:45;;;;;;;;;;;17.10;63.50;;;;;;5027406;28;1227;-71
2023/02/03 01:52:10;;;;;;;;;;;17.10;63.50;;;;;;5029227;28;1126;-70
2023/02/03 01:54:37;;;;;;;;;;;17.10;63.50;;;;;;5023604;28;1101;-69
2023/02/03 01:57:03;;;;;;;;;;;17.10;63.50;;;;;;5031901;28;1218;-71
2023/02/03 01:59:29;;;;;;;;;;;17.10;63.50;;;;;;5039076;28;1438;-71
2023/02/03 02:01:54;;;;;;;;;;;17.10;63.50;;;;;;5025112;28;1512;-72
2023/02/03 02:04:20;;;;;;;;;;;17.10;63.50;;;;;;5040973;28;1257;-71
2023/02/03 02:06:47;;;;;;;;;;;17.10;63.50;;;;;;5036867;28;1973;-70
2023/02/03 02:09:13;;;;;;;;;;;17.10;63.50;;;;;;5025862;28;1301;-73
2023/02/03 02:11:38;;;;;;;;;;;17.10;63.50;;;;;;5041489;28;1235;-70
2023/02/03 02:14:04;;;;;;;;;;;17.10;63.50;;;;;;5024863;28;1298;-71
2023/02/03 02:16:48;;;;;;;;;;;17.10;63.50;;;;;;5040522;28;1331;-71
2023/02/03 02:19:32;;;;;;;;;;;17.10;63.50;;;;;;5021288;28;1324;-70
2023/02/03 02:22:04;;;;;;;;;;;17.10;63.50;;;;;;5025795;28;1365;-71
2023/02/03 02:24:29;;;;;;;;;;;17.10;63.60;;;;;;5022431;28;1306;-71
2023/02/03 02:27:01;;;;;;;;;;;17.10;63.50;;;;;;5025215;28;1918;-70
2023/02/03 02:29:44;;;;;;;;;;;17.10;63.50;;;;;;5024469;28;1252;-69
2023/02/03 02:32:10;;;;;;;;;;;17.10;63.60;;;;;;5015146;28;1330;-71
2023/02/03 02:34:42;;;;;;;;;;;17.10;63.60;;;;;;5020656;28;1358;-70
2023/02/03 02:37:26;;;;;;;;;;;17.10;63.50;;;;;;5024319;28;845;-69
2023/02/03 02:39:56;;;;;;;;;;;17.10;63.60;;;;;;5024425;28;1233;-71
2023/02/03 02:42:33;;;;;;;;;;;17.10;63.60;;;;;;5035788;28;923;-69
2023/02/03 02:45:03;;;;;;;;;;;17.10;63.60;;;;;;5039206;28;1069;-70
2023/02/03 02:47:28;;;;;;;;;;;17.10;63.60;;;;;;5015798;28;1957;-70
2023/02/03 02:49:54;;;;;;;;;;;17.10;63.60;;;;;;5021615;28;1213;-69
2023/02/03 02:52:19;;;;;;;;;;;17.10;63.60;;;;;;5020178;28;808;-70
2023/02/03 02:54:46;;;;;;;;;;;17.00;63.50;;;;;;5044279;28;1022;-70
2023/02/03 02:57:12;;;;;;;;;;;17.10;63.60;;;;;;5015984;28;948;-69
2023/02/03 02:59:37;;;;;;;;;;;17.10;63.60;;;;;;5034886;28;1259;-69
2023/02/03 03:02:03;;;;;;;;;;;17.10;63.60;;;;;;5029504;28;1443;-70
2023/02/03 03:04:29;;;;;;;;;;;17.10;63.60;;;;;;5025153;28;893;-71
2023/02/03 03:06:56;;;;;;;;;;;17.00;63.50;;;;;;5036787;28;1914;-71
2023/02/03 03:09:34;;;;;;;;;;;17.00;63.50;;;;;;5029570;28;1260;-70
2023/02/03 03:12:14;;;;;;;;;;;17.10;63.60;;;;;;5024786;28;1066;-69
2023/02/03 03:14:40;;;;;;;;;;;17.00;63.60;;;;;;5011152;28;1295;-69
2023/02/03 03:17:06;;;;;;;;;;;17.00;63.60;;;;;;5030559;28;808;-71
2023/02/03 03:19:33;;;;;;;;;;;17.00;63.60;;;;;;5035621;28;1297;-72
2023/02/03 03:22:00;;;;;;;;;;;17.00;63.60;;;;;;5039001;28;928;-68
2023/02/03 03:24:29;;;;;;;;;;;17.10;63.70;;;;;;5020185;28;959;-69
2023/02/03 03:27:03;;;;;;;;;;;17.00;63.60;;;;;;5038766;28;1967;-69
2023/02/03 03:29:30;;;;;;;;;;;17.10;63.60;;;;;;5039640;28;1331;-70
2023/02/03 03:31:56;;;;;;;;;;;17.10;63.70;;;;;;5035971;28;821;-70
2023/02/03 03:34:21;;;;;;;;;;;17.10;63.60;;;;;;5031555;28;1401;-70
2023/02/03 03:37:07;;;;;;;;;;;17.00;63.60;;;;;;5027399;28;966;-69
2023/02/03 03:39:59;;;;;;;;;;;17.00;63.60;;;;;;5022463;28;1245;-71
2023/02/03 03:42:27;;;;;;;;;;;17.00;63.60;;;;;;5020510;28;1288;-70
2023/02/03 03:44:56;;;;;;;;;;;17.10;63.70;;;;;;5025644;28;958;-73
2023/02/03 03:47:26;;;;;;;;;;;17.10;63.70;;;;;;5037257;28;1906;-69
2023/02/03 03:49:52;;;;;;;;;;;17.00;63.60;;;;;;5022109;28;1257;-69
2023/02/03 03:52:19;;;;;;;;;;;17.10;63.70;;;;;;5033289;28;1063;-69
2023/02/03 03:54:44;;;;;;;;;;;17.10;63.70;;;;;;5028783;28;871;-70
2023/02/03 03:57:26;;;;;;;;;;;17.10;63.70;;;;;;5039885;28;825;-70
2023/02/03 03:59:51;;;;;;;;;;;17.00;63.60;;;;;;5015436;28;1347;-72
2023/02/03 04:02:17;;;;;;;;;;;17.00;63.60;;;;;;5023444;28;979;-71
2023/02/03 04:04:43;;;;;;;;;;;17.00;63.60;;;;;;5034752;28;824;-71
2023/02/03 04:07:08;;;;;;;;;;;17.00;63.70;;;;;;5024756;28;1907;-71
2023/02/03 04:09:35;;;;;;;;;;;17.00;63.70;;;;;;5015069;28;1275;-72
2023/02/03 04:12:01;;;;;;;;;;;17.00;63.70;;;;;;5021594;28;936;-71
2023/02/03 04:14:39;;;;;;;;;;;17.00;63.60;;;;;;5024122;28;1263;-73
2023/02/03 04:17:05;;;;;;;;;;;17.00;63.70;;;;;;5035122;28;819;-72
2023/02/03 04:19:30;;;;;;;;;;;17.00;63.60;;;;;;5036917;28;1350;-72
2023/02/03 04:21:56;;;;;;;;;;;17.00;63.70;;;;;;5021012;28;1073;-70
2023/02/03 04:24:21;;;;;;;;;;;17.00;63.70;;;;;;5020056;28;841;-70
2023/02/03 04:26:47;;;;;;;;;;;17.00;63.70;;;;;;5018817;28;1050;-70
2023/02/03 04:29:12;;;;;;;;;;;17.10;63.70;;;;;;5035046;28;1965;-73
2023/02/03 04:31:38;;;;;;;;;;;17.00;63.70;;;;;;5019058;28;911;-72
2023/02/03 04:34:03;;;;;;;;;;;17.00;64.40;;;;;;5021305;28;825;-73
2023/02/03 04:36:29;;;;;;;;;;;17.00;63.70;;;;;;5018981;28;1410;-71
2023/02/03 04:38:54;;;;;;;;;;;17.00;63.70;;;;;;5018670;28;1343;-70
2023/02/03 04:41:20;;;;;;;;;;;17.00;63.70;;;;;;5021335;28;1188;-70
2023/02/03 04:43:45;;;;;;;;;;;17.00;63.70;;;;;;5020397;28;880;-70
2023/02/03 04:46:11;;;;;;;;;;;17.00;63.70;;;;;;5016446;28;917;-70
2023/02/03 04:48:36;;;;;;;;;;;17.00;63.70;;;;;;5019199;28;1902;-70
2023/02/03 04:51:02;;;;;;;;;;;17.00;63.70;;;;;;5032806;28;913;-70
2023/02/03 04:53:28;;;;;;;;;;;17.00;63.70;;;;;;5032265;28;939;-70
2023/02/03 04:55:53;;;;;;;;;;;17.00;63.70;;;;;;5020492;28;870;-70
2023/02/03 04:58:19;;;;;;;;;;;17.00;63.70;;;;;;5018939;28;1268;-71
2023/02/03 05:00:44;;;;;;;;;;;17.00;63.80;;;;;;5015743;28;971;-70
2023/02/03 05:03:10;;;;;;;;;;;17.00;63.70;;;;;;5022567;28;914;-73
2023/02/03 05:05:35;;;;;;;;;;;17.00;63.70;;;;;;5018212;28;1560;-72
2023/02/03 05:08:00;;;;;;;;;;;17.00;63.70;;;;;;5018885;28;1968;-71
2023/02/03 05:10:26;;;;;;;;;;;17.00;63.70;;;;;;5019133;28;1301;-71
2023/02/03 05:12:51;;;;;;;;;;;17.00;63.70;;;;;;5019616;28;943;-71
2023/02/03 05:15:17;;;;;;;;;;;17.10;63.70;;;;;;5021598;28;876;-71
2023/02/03 05:17:42;;;;;;;;;;;17.10;63.60;;;;;;5017413;28;793;-71
2023/02/03 05:20:08;;;;;;;;;;;17.10;63.60;;;;;;5030277;28;1295;-70
2023/02/03 05:22:34;;;;;;;;;;;17.10;63.50;;;;;;5020905;28;1393;-70
2023/02/03 05:25:00;;;;;;;;;;;17.10;63.50;;;;;;5020317;28;817;-68
2023/02/03 05:27:25;;;;;;;;;;;17.10;63.40;;;;;;5033124;28;2016;-69
2023/02/03 05:29:51;;;;;;;;;;;17.10;63.40;;;;;;5018320;28;1274;-70
2023/02/03 05:32:16;;;;;;;;;;;17.10;63.30;;;;;;5017914;28;864;-69
2023/02/03 05:34:42;;;;;;;;;;;17.20;63.30;;;;;;5019522;28;933;-69
2023/02/03 05:37:07;;;;;;;;;;;17.20;63.20;;;;;;5017437;28;991;-70
2023/02/03 05:39:33;;;;;;;;;;;17.20;63.10;;;;;;5022249;28;1393;-73
2023/02/03 05:41:58;;;;;;;;;;;17.20;63.10;;;;;;5018395;28;793;-69
2023/02/03 05:44:24;;;;;;;;;;;17.20;63.00;;;;;;5016771;28;888;-69
2023/02/03 05:46:53;;;;;;;;;;;17.20;62.90;;;;;;5036770;28;837;-69
2023/02/03 05:49:19;;;;;;;;;;;17.30;62.90;;;;;;5019012;28;1343;-70
2023/02/03 05:51:45;;;;;;;;;;;17.30;62.70;;;;;;5017477;28;856;-71
2023/02/03 05:54:10;;;;;;;;;;;17.30;62.70;;;;;;5018739;28;836;-70
2023/02/03 05:56:36;;;;;;;;;;;17.30;62.60;;;;;;5015045;28;851;-70
2023/02/03 05:59:01;;;;;;;;;;;17.30;62.50;;;;;;5019909;28;1228;-71
2023/02/03 06:01:27;;;;;;;;;;;17.40;62.50;;;;;;5018681;28;1002;-71
2023/02/03 06:03:53;;;;;;;;;;;17.40;62.50;;;;;;5034016;28;1536;-69
2023/02/03 06:06:18;;;;;;;;;;;17.40;62.40;;;;;;5017363;28;859;-71
2023/02/03 06:08:43;;;;;;;;;;;17.40;62.40;;;;;;5018387;28;1906;-70
2023/02/03 06:11:09;;;;;;;;;;;17.40;62.30;;;;;;5036654;28;1294;-70
2023/02/03 06:13:34;;;;;;;;;;;17.40;62.30;;;;;;5038670;28;912;-70
2023/02/03 06:16:00;;;;;;;;;;;17.40;62.20;;;;;;5023721;28;894;-70
2023/02/03 06:18:26;;;;;;;;;;;17.40;62.20;;;;;;5024778;28;1272;-70
2023/02/03 06:20:51;;;;;;;;;;;17.40;62.20;;;;;;5023396;28;900;-70
2023/02/03 06:23:20;;;;;;;;;;;17.50;62.20;;;;;;5022243;28;829;-69
2023/02/03 06:25:48;;;;;;;;;;;17.50;62.20;;;;;;5019994;28;816;-70
2023/02/03 06:28:14;;;;;;;;;;;17.40;62.10;;;;;;5022014;28;1956;-70
2023/02/03 06:30:39;;;;;;;;;;;17.50;62.20;;;;;;5019454;28;824;-72
2023/02/03 06:33:05;;;;;;;;;;;17.50;62.10;;;;;;5021056;28;796;-71
2023/02/03 06:35:30;;;;;;;;;;;17.50;62.10;;;;;;5037998;28;1400;-72
2023/02/03 06:37:56;;;;;;;;;;;17.50;62.10;;;;;;5020797;28;836;-71
2023/02/03 06:40:21;;;;;;;;;;;17.50;62.10;;;;;;5019617;28;1260;-69
2023/02/03 06:42:47;;;;;;;;;;;17.50;62.10;;;;;;5024441;28;884;-72
2023/02/03 06:45:12;;;;;;;;;;;17.50;62.10;;;;;;5025959;28;844;-71
2023/02/03 06:47:39;;;;;;;;;;;17.50;62.10;;;;;;5035654;28;1910;-72
2023/02/03 06:50:04;;;;;;;;;;;17.50;62.00;;;;;;5011872;28;1347;-74
2023/02/03 06:52:30;;;;;;;;;;;17.50;62.00;;;;;;5022753;28;1269;-71
2023/02/03 06:54:55;;;;;;;;;;;17.50;62.80;;;;;;5020399;28;848;-72
2023/02/03 06:57:21;;;;;;;;;;;17.50;62.00;;;;;;5023689;28;1429;-71
2023/02/03 06:59:46;;;;;;;;;;;17.50;62.00;;;;;;5024666;28;1272;-71
2023/02/03 07:02:12;;;;;;;;;;;17.50;62.00;;;;;;5022035;28;852;-72
2023/02/03 07:04:37;;;;;;;;;;;17.50;62.00;;;;;;5018777;28;1370;-72
2023/02/03 07:07:03;;;;;;;;;;;17.50;61.90;;;;;;5018477;28;1952;-72
2023/02/03 07:09:29;;;;;;;;;;;17.50;61.90;;;;;;5020471;28;1262;-71
2023/02/03 07:11:54;;;;;;;;;;;17.50;61.90;;;;;;5023223;28;942;-73
2023/02/03 07:14:19;;;;;;;;;;;17.50;61.90;;;;;;5023885;28;1243;-73
2023/02/03 07:16:45;;;;;;;;;;;17.50;61.90;;;;;;5022610;28;1077;-72
2023/02/03 07:19:10;;;;;;;;;;;17.50;61.90;;;;;;5018110;28;1299;-73
2023/02/03 07:21:36;;;;;;;;;;;17.50;62.00;;;;;;5015843;28;847;-74
2023/02/03 07:24:02;;;;;;;;;;;17.50;62.00;;;;;;5026389;28;1134;-74
2023/02/03 07:26:27;;;;;;;;;;;17.50;62.00;;;;;;5036564;28;829;-71
2023/02/03 07:28:53;;;;;;;;;;;17.50;62.00;;;;;;5021953;28;1891;-72
2023/02/03 07:31:18;;;;;;;;;;;17.50;62.00;;;;;;5024788;28;1427;-72
2023/02/03 07:33:44;;;;;;;;;;;17.50;62.10;;;;;;5019027;28;946;-72
2023/02/03 07:36:10;;;;;;;;;;;17.50;62.10;;;;;;5021572;28;933;-70
2023/02/03 07:38:36;;;;;;;;;;;17.50;62.10;;;;;;5017154;28;1245;-72
2023/02/03 07:41:02;;;;;;;;;;;17.50;62.10;;;;;;5028947;28;1613;-72
2023/02/03 07:43:28;;;;;;;;;;;17.50;62.10;;;;;;5020496;28;986;-71
2023/02/03 07:45:53;;;;;;;;;;;17.50;62.10;;;;;;5016567;28;892;-73
2023/02/03 07:48:19;;;;;;;;;;;17.50;62.20;;;;;;5019025;28;1906;-73
2023/02/03 07:50:46;;;;;;;;;;;17.50;62.20;;;;;;5016884;28;890;-73
2023/02/03 07:53:11;;;;;;;;;;;17.40;62.10;;;;;;5034417;28;1093;-70
2023/02/03 07:55:37;;;;;;;;;;;17.40;62.20;;;;;;5017017;28;2001;-73
2023/02/03 07:58:03;;;;;;;;;;;17.50;62.30;;;;;;5021816;28;1494;-73
2023/02/03 08:00:28;;;;;;;;;;;17.40;62.20;;;;;;5014710;28;1916;-71
2023/02/03 08:02:54;;;;;;;;;;;17.40;62.30;;;;;;5020573;28;1206;-73
2023/02/03 08:05:19;;;;;;;;;;;17.40;62.30;;;;;;5018698;28;1968;-73
2023/02/03 08:07:45;;;;;;;;;;;17.40;62.30;;;;;;5019186;28;1971;-72
2023/02/03 08:10:11;;;;;;;;;;;17.40;62.30;;;;;;5027964;28;1305;-71
2023/02/03 08:12:37;;;;;;;;;;;17.40;62.30;;;;;;5033949;28;832;-70
2023/02/03 08:15:03;;;;;;;;;;;17.40;62.30;;;;;;5020029;28;916;-71
2023/02/03 08:17:28;;;;;;;;;;;17.40;62.30;;;;;;5037843;28;842;-71
2023/02/03 08:19:54;;;;;;;;;;;17.40;63.00;;;;;;5019281;28;1273;-71
2023/02/03 08:22:19;;;;;;;;;;;17.40;62.30;;;;;;5035570;28;879;-70
2023/02/03 08:24:45;;;;;;;;;;;17.40;62.40;;;;;;5019127;28;844;-72
2023/02/03 08:27:14;;;;;;;;;;;17.40;62.40;;;;;;5035567;28;1988;-73
2023/02/03 08:29:40;;;;;;;;;;;17.40;62.40;;;;;;5007066;28;1277;-72
2023/02/03 08:32:08;;;;;;;;;;;17.30;62.40;;;;;;5018958;28;820;-73
2023/02/03 08:34:33;;;;;;;;;;;17.40;62.40;;;;;;5018000;28;1291;-73
2023/02/03 08:36:59;;;;;;;;;;;17.40;62.70;;;;;;5018808;28;816;-73
2023/02/03 08:39:24;;;;;;;;;;;17.40;62.40;;;;;;5022289;28;1250;-71
2023/02/03 08:41:50;;;;;;;;;;;17.40;62.40;;;;;;5018541;28;1198;-71
2023/02/03 08:44:17;;;;;;;;;;;17.40;62.40;;;;;;5019578;28;1039;-71
2023/02/03 08:46:43;;;;;;;;;;;17.40;62.30;;;;;;5019986;28;883;-69
2023/02/03 08:49:08;;;;;;;;;;;17.40;62.30;;;;;;5021806;28;1961;-71
2023/02/03 08:51:34;;;;;;;;;;;17.40;62.30;;;;;;5024647;28;837;-71
2023/02/03 08:53:59;;;;;;;;;;;17.40;62.30;;;;;;5020174;28;939;-70
2023/02/03 08:56:26;;;;;;;;;;;17.40;62.30;;;;;;5017312;28;896;-70
2023/02/03 08:58:51;;;;;;;;;;;17.40;62.20;;;;;;5022112;28;1373;-70
2023/02/03 09:01:17;;;;;;;;;;;17.50;62.20;;;;;;5022587;28;884;-70
2023/02/03 09:03:43;;;;;;;;;;;17.50;62.20;;;;;;5019550;28;893;-70
2023/02/03 09:06:10;;;;;;;;;;;17.40;62.10;;;;;;5019164;28;907;-70
2023/02/03 09:08:36;;;;;;;;;;;17.50;62.10;;;;;;5025703;28;1902;-71
2023/02/03 09:11:01;;;;;;;;;;;17.50;62.10;;;;;;5019903;28;1018;-71
2023/02/03 09:13:27;;;;;;;;;;;17.50;62.00;;;;;;5020806;28;904;-70
2023/02/03 09:15:52;;;;;;;;;;;17.50;62.00;;;;;;5014835;28;858;-71
2023/02/03 09:18:18;;;;;;;;;;;17.50;61.90;;;;;;5014156;28;1289;-72
2023/02/03 09:20:43;;;;;;;;;;;17.50;61.90;;;;;;5018307;28;1015;-69
2023/02/03 09:23:08;;;;;;;;;;;17.60;61.90;;;;;;5039566;28;1001;-70
2023/02/03 09:25:34;;;;;;;;;;;17.50;61.90;;;;;;5024291;28;998;-72
2023/02/03 09:28:03;;;;;;;;;;;17.50;61.90;;;;;;5019899;28;1965;-71
2023/02/03 09:30:28;;;;;;;;;;;17.50;61.90;;;;;;5020305;28;1222;-71
2023/02/03 09:32:55;;;;;;;;;;;17.50;61.90;;;;;;5023390;28;762;-71
2023/02/03 09:35:21;;;;;;;;;;;17.50;61.90;;;;;;5018736;28;754;-72
2023/02/03 09:37:47;;;;;;;;;;;17.50;61.90;;;;;;5020427;28;1249;-72
2023/02/03 09:40:42;;;;;;;;;;;17.50;61.90;;;;;;5017880;28;1613;-71
2023/02/03 09:43:43;;;;;;;;;;;17.50;62.00;;;;;;5014892;28;1410;-70
2023/02/03 09:46:13;;;;;;;;;;;17.50;62.00;;;;;;4999395;28;1392;-71
2023/02/03 09:48:40;;;;;;;;;;;17.50;62.00;;;;;;5016765;28;1890;-70
2023/02/03 09:51:15;;;;;;;;;;;17.50;62.10;;;;;;5037356;28;837;-71
2023/02/03 09:53:44;;;;;;;;;;;17.50;62.10;;;;;;5038407;28;919;-70
2023/02/03 09:56:29;;;;;;;;;;;17.50;62.10;;;;;;5037663;28;1036;-71
2023/02/03 09:58:54;;;;;;;;;;;17.50;62.10;;;;;;5039610;28;1346;-70
2023/02/03 10:01:21;;;;;;;;;;;17.50;62.10;;;;;;5037415;28;852;-70
2023/02/03 10:03:49;;;;;;;;;;;17.40;62.00;;;;;;5038895;28;1381;-70
2023/02/03 10:06:30;;;;;;;;;;;17.50;62.00;;;;;;5019346;28;2154;-69
2023/02/03 10:09:08;;;;;;;;;;;17.50;62.00;;;;;;5022791;28;1894;-70
2023/02/03 10:11:49;;;;;;;;;;;17.50;62.10;;;;;;5029607;28;1570;-69
2023/02/03 10:14:33;;;;;;;;;;;17.50;62.00;;;;;;5024763;28;1288;-71
2023/02/03 10:17:19;;;;;;;;;;;17.50;62.00;;;;;;5022068;28;1380;-71
2023/02/03 10:20:03;;;;;;;;;;;17.50;62.00;;;;;;5022217;28;1272;-72
2023/02/03 10:22:29;;;;;;;;;;;17.50;62.00;;;;;;5021645;28;1042;-71
2023/02/03 10:24:57;;;;;;;;;;;17.50;62.00;;;;;;5038369;28;1430;-71
2023/02/03 10:27:22;;;;;;;;;;;17.60;62.00;;;;;;5024681;28;1965;-71
2023/02/03 10:30:11;;;;;;;;;;;17.50;61.90;;;;;;5030046;28;1801;-72
2023/02/03 10:32:37;;;;;;;;;;;17.60;61.90;;;;;;5019576;28;1326;-73
2023/02/03 10:35:04;;;;;;;;;;;17.60;61.90;;;;;;5020276;28;953;-70
2023/02/03 10:37:34;;;;;;;;;;;17.60;61.90;;;;;;5021201;28;891;-71
2023/02/03 10:39:59;;;;;;;;;;;17.60;61.90;;;;;;5022317;28;1284;-71
2023/02/03 10:43:46;;;;;;;;;;;17.60;61.90;;;;;;5024008;28;895;-69
2023/02/03 10:45:10;;;;;;;;;;;17.50;61.80;;;;;;5021468;28;1328;-72
2023/02/03 10:47:41;;;;;;;;;;;17.50;61.80;;;;;;5033291;28;1902;-70
2023/02/03 10:50:13;;;;;;;;;;;17.60;61.90;;;;;;5016266;28;1267;-71
2023/02/03 10:52:38;;;;;;;;;;;17.60;61.90;;;;;;5038169;28;867;-70
2023/02/03 10:55:05;;;;;;;;;;;17.60;62.00;;;;;;5023392;28;889;-71
2023/02/03 10:57:32;;;;;;;;;;;17.60;62.00;;;;;;5021853;28;848;-70
2023/02/03 11:00:10;;;;;;;;;;;17.60;62.00;;;;;;5025301;28;1429;-71
2023/02/03 11:02:36;;;;;;;;;;;17.60;62.00;;;;;;5019305;28;1698;-71
2023/02/03 11:05:18;;;;;;;;;;;17.50;62.00;;;;;;5035759;28;1305;-69
2023/02/03 11:07:43;;;;;;;;;;;17.50;62.00;;;;;;5020464;28;1898;-69
2023/02/03 11:10:39;;;;;;;;;;;17.50;62.00;;;;;;5020739;28;1253;-70
2023/02/03 11:13:11;;;;;;;;;;;17.50;62.10;;;;;;5017494;28;1285;-69
2023/02/03 11:15:36;;;;;;;;;;;17.50;62.20;;;;;;5020070;28;982;-70
2023/02/03 11:18:02;;;;;;;;;;;17.50;62.20;;;;;;5035524;28;1057;-70
2023/02/03 11:20:27;;;;;;;;;;;17.50;62.20;;;;;;5035767;28;1388;-70
2023/02/03 11:22:53;;;;;;;;;;;17.50;62.20;;;;;;5022120;28;879;-69
2023/02/03 11:25:28;;;;;;;;;;;17.50;62.30;;;;;;5020943;28;863;-70
2023/02/03 11:27:53;;;;;;;;;;;17.50;62.30;;;;;;5027975;28;2005;-70
2023/02/03 11:30:30;;;;;;;;;;;17.50;62.20;;;;;;5033510;28;1227;-70
2023/02/03 11:32:56;;;;;;;;;;;17.50;62.30;;;;;;5022551;28;1506;-70
2023/02/03 11:35:22;;;;;;;;;;;17.50;62.20;;;;;;5032887;28;1879;-70
2023/02/03 11:37:48;;;;;;;;;;;17.50;62.20;;;;;;5025984;28;1282;-71
2023/02/03 11:40:14;;;;;;;;;;;17.50;62.10;;;;;;5036675;28;1372;-70
2023/02/03 11:42:48;;;;;;;;;;;17.50;62.00;;;;;;5019857;28;1941;-70
2023/02/03 11:45:19;;;;;;;;;;;17.50;62.00;;;;;;5020232;28;1362;-70
2023/02/03 11:47:50;;;;;;;;;;;17.50;61.90;;;;;;5033091;28;1910;-70
2023/02/03 11:50:15;;;;;;;;;;;17.60;62.00;;;;;;5036106;28;1282;-70
2023/02/03 11:52:49;;;;;;;;;;;17.60;61.90;;;;;;5022245;28;865;-70
2023/02/03 11:55:15;;;;;;;;;;;17.60;61.80;;;;;;5036520;28;891;-72
2023/02/03 11:57:43;;;;;;;;;;;17.60;61.80;;;;;;5020320;28;899;-71
2023/02/03 12:00:29;;;;;;;;;;;17.60;61.70;;;;;;5020694;28;1273;-72
2023/02/03 12:03:01;;;;;;;;;;;17.70;61.70;;;;;;5016712;28;855;-71
2023/02/03 12:05:36;;;;;;;;;;;17.60;61.60;;;;;;5020082;28;963;-71
2023/02/03 12:08:05;;;;;;;;;;;17.70;61.50;;;;;;5037219;28;1906;-71
2023/02/03 12:10:36;;;;;;;;;;;17.70;61.50;;;;;;5022306;28;1453;-74
2023/02/03 12:13:20;;;;;;;;;;;17.70;61.50;;;;;;5014696;28;1832;-71
2023/02/03 12:16:04;;;;;;;;;;;17.70;61.40;;;;;;5018473;28;987;-73
2023/02/03 12:18:30;;;;;;;;;;;17.70;61.40;;;;;;5018614;28;1287;-72
2023/02/03 12:20:59;;;;;;;;;;;17.70;61.40;;;;;;5018460;28;1215;-72
2023/02/03 12:23:37;;;;;;;;;;;17.70;61.30;;;;;;5034545;28;847;-72
2023/02/03 12:26:09;;;;;;;;;;;17.70;61.30;;;;;;5017799;28;915;-71
2023/02/03 12:28:37;;;;;;;;;;;17.80;61.40;;;;;;5018494;28;1987;-71
2023/02/03 12:31:23;;;;;;;;;;;17.70;61.30;;;;;;5022174;28;940;-72
2023/02/03 12:33:49;;;;;;;;;;;17.70;61.30;;;;;;5014690;28;1152;-72
2023/02/03 12:36:23;;;;;;;;;;;17.70;61.30;;;;;;5027047;28;1489;-73
2023/02/03 12:38:50;;;;;;;;;;;17.70;61.30;;;;;;5022859;28;1284;-73
2023/02/03 12:41:17;;;;;;;;;;;17.70;61.40;;;;;;5035743;28;1262;-71
2023/02/03 12:43:48;;;;;;;;;;;17.70;61.40;;;;;;5022374;28;1479;-72
2023/02/03 12:46:17;;;;;;;;;;;17.70;61.40;;;;;;5034094;28;1148;-72
2023/02/03 12:48:48;;;;;;;;;;;17.70;61.40;;;;;;5012078;28;1898;-72
2023/02/03 12:51:15;;;;;;;;;;;17.70;61.50;;;;;;5032852;28;879;-71
2023/02/03 12:53:41;;;;;;;;;;;17.70;61.50;;;;;;5027076;28;1191;-71
2023/02/03 12:56:09;;;;;;;;;;;17.70;61.60;;;;;;5020152;28;813;-72
2023/02/03 12:58:35;;;;;;;;;;;17.60;61.50;;;;;;5021977;28;1393;-71
2023/02/03 13:01:15;;;;;;;;;;;17.60;61.60;;;;;;5031959;28;1339;-71
2023/02/03 13:03:47;;;;;;;;;;;17.70;61.70;;;;;;5018003;28;1240;-72
2023/02/03 13:06:28;;;;;;;;;;;17.60;61.60;;;;;;5026401;28;1427;-72
2023/02/03 13:08:53;;;;;;;;;;;17.70;61.70;;;;;;5017346;28;1914;-71
2023/02/03 13:11:23;;;;;;;;;;;17.70;61.70;;;;;;5014874;28;1445;-72
2023/02/03 13:13:51;;;;;;;;;;;17.70;61.70;;;;;;5013049;28;2024;-71
2023/02/03 13:16:16;;;;;;;;;;;17.70;61.70;;;;;;5015649;28;1007;-72
2023/02/03 13:18:43;;;;;;;;;;;17.70;61.60;;;;;;5035958;28;1315;-72
2023/02/03 13:21:10;;;;;;;;;;;17.70;61.60;;;;;;5019390;28;924;-72
2023/02/03 13:23:35;;;;;;;;;;;17.70;61.60;;;;;;5034181;28;885;-72
2023/02/03 13:26:20;;;;;;;;;;;17.70;61.50;;;;;;5024568;28;1416;-72
2023/02/03 13:29:00;;;;;;;;;;;17.70;61.50;;;;;;5021442;28;1918;-72
2023/02/03 13:31:35;;;;;;;;;;;17.70;61.40;;;;;;5019185;28;1280;-72
2023/02/03 13:34:19;;;;;;;;;;;17.70;61.40;;;;;;5018833;28;859;-73
2023/02/03 13:36:47;;;;;;;;;;;17.70;61.40;;;;;;5018456;28;1046;-72
2023/02/03 13:39:12;;;;;;;;;;;17.70;61.40;;;;;;5016448;28;1257;-72
2023/02/03 13:41:42;;;;;;;;;;;17.70;61.40;;;;;;5020865;28;850;-73
2023/02/03 13:44:11;;;;;;;;;;;17.70;61.40;;;;;;5021185;28;872;-72
2023/02/03 13:46:37;;;;;;;;;;;17.70;61.40;;;;;;5032541;28;828;-69
2023/02/03 13:49:02;;;;;;;;;;;17.70;61.50;;;;;;5021093;28;2118;-70
2023/02/03 13:51:44;;;;;;;;;;;17.70;61.50;;;;;;5019306;28;1144;-71
2023/02/03 13:54:14;;;;;;;;;;;17.70;61.50;;;;;;5035784;28;1154;-70
2023/02/03 13:56:40;;;;;;;;;;;17.70;61.60;;;;;;5032842;28;951;-74
2023/02/03 13:59:18;;;;;;;;;;;17.60;61.60;;;;;;5017745;28;1367;-71
2023/02/03 14:01:44;;;;;;;;;;;17.70;61.70;;;;;;5031224;28;1243;-73
2023/02/03 14:04:22;;;;;;;;;;;17.70;61.70;;;;;;5017890;28;1329;-71
2023/02/03 14:06:47;;;;;;;;;;;17.70;61.70;;;;;;5019271;28;1057;-72
2023/02/03 14:09:23;;;;;;;;;;;17.70;61.70;;;;;;5017869;28;1957;-71
2023/02/03 14:11:49;;;;;;;;;;;17.60;61.70;;;;;;5032866;28;1325;-73
2023/02/03 14:14:14;;;;;;;;;;;17.60;61.70;;;;;;5026359;28;1203;-73
2023/02/03 14:16:50;;;;;;;;;;;17.70;61.70;;;;;;5016891;28;887;-73
2023/02/03 14:19:21;;;;;;;;;;;17.70;61.70;;;;;;5017524;28;1347;-71
2023/02/03 14:21:53;;;;;;;;;;;17.70;61.60;;;;;;5019401;28;862;-73
2023/02/03 14:24:19;;;;;;;;;;;17.70;61.60;;;;;;5031326;28;915;-71
2023/02/03 14:26:45;;;;;;;;;;;17.70;61.50;;;;;;5019662;28;861;-73
2023/02/03 14:29:26;;;;;;;;;;;17.70;61.50;;;;;;5019840;28;1930;-72
2023/02/03 14:31:53;;;;;;;;;;;17.70;61.50;;;;;;5031447;28;1135;-73
2023/02/03 14:34:26;;;;;;;;;;;17.70;61.40;;;;;;5022130;28;1526;-72
2023/02/03 14:36:53;;;;;;;;;;;17.70;61.40;;;;;;5037576;28;951;-72
2023/02/03 14:39:19;;;;;;;;;;;17.70;61.40;;;;;;5035533;28;1312;-72
2023/02/03 14:41:44;;;;;;;;;;;17.70;61.40;;;;;;5017112;28;882;-72